LNOVK ENNO-ENBM

Flight info

Callsign LNOVK
Flight time 0h 50m
Altitude 6500
Route TIBNO NELUK
Aircraft EC30/L-G/S

Departure

Time 2026-05-07 07:25
Airport Notodden Airport (ENNO)

Arrival

Time 2026-05-07 08:15
Airport Bømoen Airfield (ENBM)
Time Latitude Longitude Altitude Speed Heading
2026-05-07 07:09 59.56521 9.21811 134 ft 0 kts 124°
2026-05-07 07:22 59.56507 9.21854 130 ft 6 kts 149°
2026-05-07 07:23 59.56474 9.21893 126 ft 6 kts 185°
2026-05-07 07:23 59.56415 9.21853 131 ft 9 kts 211°
2026-05-07 07:23 59.56378 9.21802 138 ft 9 kts 204°
2026-05-07 07:23 59.56380 9.21678 148 ft 20 kts 309°
2026-05-07 07:24 59.56551 9.21223 176 ft 57 kts 308°
2026-05-07 07:24 59.56829 9.20489 272 ft 74 kts 307°
2026-05-07 07:24 59.57124 9.19556 422 ft 83 kts 299°
2026-05-07 07:24 59.57393 9.18543 549 ft 84 kts 301°
2026-05-07 07:25 59.57971 9.16393 893 ft 90 kts 297°
2026-05-07 07:25 59.58190 9.15248 1096 ft 90 kts 286°
2026-05-07 07:25 59.58300 9.14028 1321 ft 89 kts 282°
2026-05-07 07:26 59.58511 9.12841 1474 ft 94 kts 297°
2026-05-07 07:26 59.58808 9.11639 1585 ft 99 kts 297°
2026-05-07 07:26 59.59123 9.10449 1768 ft 98 kts 302°
2026-05-07 07:26 59.59548 9.09384 1895 ft 100 kts 311°
2026-05-07 07:27 59.60026 9.08369 1997 ft 101 kts 318°
2026-05-07 07:27 59.60560 9.07459 2095 ft 102 kts 322°
2026-05-07 07:27 59.61111 9.06595 2221 ft 100 kts 321°
2026-05-07 07:27 59.61646 9.05724 2339 ft 99 kts 320°
2026-05-07 07:28 59.62142 9.04794 2461 ft 99 kts 313°
2026-05-07 07:28 59.62595 9.03734 2532 ft 103 kts 310°
2026-05-07 07:28 59.63059 9.02658 2644 ft 102 kts 311°
2026-05-07 07:28 59.63517 9.01574 2746 ft 103 kts 309°
2026-05-07 07:29 59.63942 9.00441 2874 ft 103 kts 306°
2026-05-07 07:29 59.64371 8.99319 3013 ft 102 kts 308°
2026-05-07 07:29 59.64818 8.98227 3128 ft 103 kts 311°
2026-05-07 07:29 59.65277 8.97165 3251 ft 101 kts 310°
2026-05-07 07:30 59.65735 8.96039 3278 ft 109 kts 308°
2026-05-07 07:30 59.66188 8.94794 3264 ft 113 kts 305°
2026-05-07 07:30 59.66608 8.93470 3270 ft 115 kts 302°
2026-05-07 07:30 59.67067 8.92173 3267 ft 116 kts 309°
2026-05-07 07:31 59.67596 8.90964 3251 ft 117 kts 312°
2026-05-07 07:31 59.68134 8.89752 3228 ft 118 kts 310°
2026-05-07 07:31 59.68651 8.88497 3271 ft 115 kts 309°
2026-05-07 07:31 59.69140 8.87227 3334 ft 117 kts 306°
2026-05-07 07:32 59.69604 8.85878 3405 ft 118 kts 304°
2026-05-07 07:32 59.70069 8.84556 3507 ft 118 kts 306°
2026-05-07 07:32 59.70593 8.83346 3646 ft 114 kts 313°
2026-05-07 07:32 59.71125 8.82153 3722 ft 117 kts 311°
2026-05-07 07:33 59.71655 8.80944 3834 ft 115 kts 311°
2026-05-07 07:33 59.72197 8.79750 3890 ft 118 kts 313°
2026-05-07 07:33 59.72755 8.78572 3988 ft 117 kts 313°
2026-05-07 07:33 59.73276 8.77339 4056 ft 116 kts 308°
2026-05-07 07:34 59.73808 8.76129 4127 ft 117 kts 313°
2026-05-07 07:34 59.74313 8.74868 4249 ft 117 kts 306°
2026-05-07 07:34 59.74767 8.73507 4330 ft 119 kts 303°
2026-05-07 07:34 59.75222 8.72158 4424 ft 118 kts 304°
2026-05-07 07:35 59.75704 8.70851 4523 ft 116 kts 308°
2026-05-07 07:35 59.76197 8.69583 4604 ft 116 kts 308°
2026-05-07 07:35 59.76683 8.68300 4709 ft 117 kts 307°
2026-05-07 07:35 59.77165 8.66996 4804 ft 117 kts 305°
2026-05-07 07:36 59.77596 8.65638 4906 ft 117 kts 301°
2026-05-07 07:36 59.77981 8.64203 4992 ft 117 kts 296°
2026-05-07 07:36 59.78347 8.62741 5038 ft 120 kts 300°
2026-05-07 07:36 59.78841 8.61376 5044 ft 124 kts 310°
2026-05-07 07:37 59.79409 8.60070 5034 ft 127 kts 311°
2026-05-07 07:37 59.79989 8.58753 5046 ft 127 kts 310°
2026-05-07 07:37 59.80531 8.57384 5067 ft 126 kts 307°
2026-05-07 07:37 59.81054 8.55985 5071 ft 125 kts 306°
2026-05-07 07:38 59.81576 8.54515 4998 ft 126 kts 306°
2026-05-07 07:38 59.82084 8.53118 5037 ft 124 kts 307°
2026-05-07 07:38 59.82623 8.51771 5055 ft 125 kts 310°
2026-05-07 07:38 59.83184 8.50439 5062 ft 126 kts 310°
2026-05-07 07:39 59.83742 8.49097 5064 ft 126 kts 310°
2026-05-07 07:39 59.84287 8.47725 5070 ft 127 kts 309°
2026-05-07 07:39 59.84824 8.46338 5071 ft 127 kts 308°
2026-05-07 07:39 59.85354 8.44944 5133 ft 124 kts 308°
2026-05-07 07:40 59.85869 8.43581 5214 ft 124 kts 307°
2026-05-07 07:40 59.86388 8.42194 5278 ft 125 kts 307°
2026-05-07 07:40 59.86906 8.40785 5312 ft 126 kts 307°
2026-05-07 07:40 59.87247 8.39847 5331 ft 127 kts 307°
2026-05-07 07:41 59.87759 8.38429 5417 ft 126 kts 306°
2026-05-07 07:41 59.88261 8.36982 5475 ft 127 kts 304°
2026-05-07 07:41 59.88765 8.35516 5531 ft 129 kts 304°
2026-05-07 07:41 59.89278 8.34053 5586 ft 129 kts 305°
2026-05-07 07:42 59.89798 8.32595 5639 ft 129 kts 306°
2026-05-07 07:42 59.90324 8.31146 5699 ft 129 kts 306°
2026-05-07 07:42 59.90852 8.29703 5761 ft 129 kts 306°
2026-05-07 07:42 59.91378 8.28261 5853 ft 128 kts 306°
2026-05-07 07:43 59.91885 8.26811 5917 ft 128 kts 304°
2026-05-07 07:43 59.92387 8.25344 5969 ft 128 kts 304°
2026-05-07 07:43 59.92886 8.23879 6029 ft 127 kts 304°
2026-05-07 07:43 59.93381 8.22425 6115 ft 127 kts 304°
2026-05-07 07:44 59.93889 8.20946 6139 ft 132 kts 304°
2026-05-07 07:44 59.94411 8.19424 6139 ft 134 kts 304°
2026-05-07 07:44 59.94936 8.17890 6138 ft 134 kts 304°
2026-05-07 07:44 59.95460 8.16355 6137 ft 134 kts 304°
2026-05-07 07:45 59.95989 8.14818 6137 ft 134 kts 307°
2026-05-07 07:45 59.96567 8.13350 6137 ft 135 kts 313°
2026-05-07 07:45 59.97160 8.11891 6134 ft 136 kts 308°
2026-05-07 07:45 59.97695 8.10339 6134 ft 136 kts 305°
2026-05-07 07:46 59.98223 8.08784 6131 ft 135 kts 306°
2026-05-07 07:46 59.98751 8.07237 6134 ft 135 kts 306°
2026-05-07 07:46 59.99282 8.05682 6135 ft 136 kts 306°
2026-05-07 07:46 59.99817 8.04116 6135 ft 137 kts 306°
2026-05-07 07:47 60.00352 8.02552 6134 ft 135 kts 306°
2026-05-07 07:47 60.00881 8.01002 6133 ft 135 kts 306°
2026-05-07 07:47 60.01409 7.99456 6134 ft 135 kts 306°
2026-05-07 07:47 60.01939 7.97902 6134 ft 136 kts 306°
2026-05-07 07:48 60.02472 7.96342 6149 ft 136 kts 305°
2026-05-07 07:48 60.03005 7.94777 6149 ft 136 kts 305°
2026-05-07 07:48 60.03538 7.93215 6149 ft 136 kts 305°
2026-05-07 07:48 60.04070 7.91652 6148 ft 136 kts 305°
2026-05-07 07:49 60.04601 7.90093 6149 ft 135 kts 305°
2026-05-07 07:49 60.05132 7.88531 6149 ft 136 kts 305°
2026-05-07 07:49 60.05664 7.86964 6159 ft 137 kts 305°
2026-05-07 07:49 60.06199 7.85389 6159 ft 137 kts 305°
2026-05-07 07:50 60.06733 7.83816 6160 ft 137 kts 305°
2026-05-07 07:50 60.07266 7.82245 6159 ft 136 kts 305°
2026-05-07 07:50 60.07798 7.80679 6160 ft 137 kts 305°
2026-05-07 07:50 60.08333 7.79098 6160 ft 137 kts 305°
2026-05-07 07:51 60.08868 7.77519 6155 ft 137 kts 305°
2026-05-07 07:51 60.09400 7.75946 6157 ft 136 kts 305°
2026-05-07 07:51 60.09931 7.74374 6156 ft 136 kts 305°
2026-05-07 07:51 60.10462 7.72804 6156 ft 136 kts 305°
2026-05-07 07:52 60.10990 7.71238 6154 ft 136 kts 305°
2026-05-07 07:52 60.11518 7.69676 6154 ft 135 kts 305°
2026-05-07 07:52 60.12045 7.68112 6154 ft 135 kts 305°
2026-05-07 07:52 60.12573 7.66546 6154 ft 135 kts 304°
2026-05-07 07:53 60.13099 7.64981 6154 ft 135 kts 304°
2026-05-07 07:53 60.13627 7.63413 6154 ft 136 kts 304°
2026-05-07 07:53 60.14157 7.61837 6154 ft 137 kts 304°
2026-05-07 07:53 60.14690 7.60252 6153 ft 137 kts 304°
2026-05-07 07:54 60.15224 7.58660 6130 ft 138 kts 304°
2026-05-07 07:54 60.15760 7.57061 6105 ft 138 kts 304°
2026-05-07 07:54 60.16295 7.55467 6090 ft 137 kts 304°
2026-05-07 07:54 60.16827 7.53881 6089 ft 137 kts 304°
2026-05-07 07:55 60.17357 7.52298 6088 ft 137 kts 304°
2026-05-07 07:55 60.17889 7.50708 6088 ft 137 kts 304°
2026-05-07 07:55 60.18421 7.49117 6085 ft 137 kts 304°
2026-05-07 07:55 60.18954 7.47523 6073 ft 138 kts 304°
2026-05-07 07:56 60.19487 7.45926 6060 ft 137 kts 304°
2026-05-07 07:56 60.20019 7.44334 6059 ft 137 kts 304°
2026-05-07 07:56 60.20551 7.42739 6059 ft 137 kts 304°
2026-05-07 07:56 60.21083 7.41143 6060 ft 138 kts 304°
2026-05-07 07:57 60.21619 7.39535 6060 ft 138 kts 304°
2026-05-07 07:57 60.22154 7.37927 6058 ft 138 kts 304°
2026-05-07 07:57 60.22687 7.36323 6059 ft 138 kts 304°
2026-05-07 07:57 60.23218 7.34728 6057 ft 137 kts 304°
2026-05-07 07:58 60.23746 7.33137 6059 ft 136 kts 304°
2026-05-07 07:58 60.24271 7.31554 6057 ft 136 kts 304°
2026-05-07 07:58 60.24794 7.29977 6058 ft 135 kts 304°
2026-05-07 07:58 60.25316 7.28404 6059 ft 135 kts 304°
2026-05-07 07:59 60.25835 7.26837 6060 ft 134 kts 304°
2026-05-07 07:59 60.26355 7.25266 6055 ft 135 kts 304°
2026-05-07 07:59 60.26875 7.23693 6030 ft 135 kts 304°
2026-05-07 07:59 60.27395 7.22121 6031 ft 135 kts 304°
2026-05-07 08:00 60.27909 7.20540 6032 ft 135 kts 303°
2026-05-07 08:00 60.28424 7.18949 6031 ft 136 kts 303°
2026-05-07 08:00 60.28942 7.17359 6033 ft 135 kts 303°
2026-05-07 08:00 60.29459 7.15778 6033 ft 135 kts 304°
2026-05-07 08:01 60.29976 7.14199 6035 ft 135 kts 304°
2026-05-07 08:01 60.30495 7.12620 6032 ft 135 kts 304°
2026-05-07 08:01 60.31015 7.11035 6032 ft 136 kts 304°
2026-05-07 08:01 60.31535 7.09455 6033 ft 135 kts 304°
2026-05-07 08:02 60.32055 7.07874 6033 ft 135 kts 303°
2026-05-07 08:02 60.32580 7.06273 6032 ft 135 kts 303°
2026-05-07 08:02 60.33102 7.04684 6029 ft 136 kts 304°
2026-05-07 08:02 60.33620 7.03101 6033 ft 134 kts 304°
2026-05-07 08:03 60.34130 7.01539 6062 ft 133 kts 303°
2026-05-07 08:03 60.34640 6.99986 6074 ft 133 kts 303°
2026-05-07 08:03 60.35153 6.98419 6059 ft 135 kts 303°
2026-05-07 08:03 60.35667 6.96848 6053 ft 133 kts 303°
2026-05-07 08:04 60.36171 6.95295 6063 ft 133 kts 303°
2026-05-07 08:04 60.36678 6.93743 6061 ft 135 kts 304°
2026-05-07 08:04 60.37194 6.92159 6043 ft 136 kts 302°
2026-05-07 08:04 60.37463 6.90355 6045 ft 133 kts 274°
2026-05-07 08:05 60.37483 6.88493 5922 ft 132 kts 271°
2026-05-07 08:05 60.37471 6.86609 5699 ft 135 kts 270°
2026-05-07 08:05 60.37442 6.84741 5480 ft 133 kts 269°
2026-05-07 08:05 60.37407 6.82856 5211 ft 135 kts 269°
2026-05-07 08:06 60.37383 6.80947 4950 ft 137 kts 269°
2026-05-07 08:06 60.37310 6.79005 4640 ft 140 kts 268°
2026-05-07 08:06 60.37304 6.77021 4338 ft 141 kts 276°
2026-05-07 08:06 60.37579 6.75163 4138 ft 136 kts 298°
2026-05-07 08:07 60.38106 6.73599 3961 ft 134 kts 313°
2026-05-07 08:07 60.38772 6.72273 3725 ft 135 kts 319°
2026-05-07 08:07 60.39485 6.71027 3533 ft 136 kts 324°
2026-05-07 08:07 60.40232 6.69922 3387 ft 133 kts 324°
2026-05-07 08:08 60.40984 6.68780 3169 ft 136 kts 325°
2026-05-07 08:08 60.41725 6.67624 2999 ft 135 kts 323°
2026-05-07 08:08 60.42461 6.66444 2878 ft 134 kts 323°
2026-05-07 08:08 60.43206 6.65336 2865 ft 133 kts 327°
2026-05-07 08:09 60.43966 6.64258 2834 ft 133 kts 327°
2026-05-07 08:09 60.44751 6.63277 2858 ft 130 kts 333°
2026-05-07 08:09 60.45551 6.62412 2865 ft 131 kts 331°
2026-05-07 08:09 60.46318 6.61436 2908 ft 129 kts 331°
2026-05-07 08:10 60.47132 6.60586 2937 ft 133 kts 337°
2026-05-07 08:10 60.47960 6.59839 3107 ft 128 kts 336°
2026-05-07 08:10 60.48784 6.59102 3163 ft 131 kts 343°
2026-05-07 08:10 60.49687 6.58751 3172 ft 134 kts 353°
2026-05-07 08:11 60.50622 6.58568 3206 ft 137 kts 359°
2026-05-07 08:11 60.51589 6.58582 3173 ft 140 kts
2026-05-07 08:11 60.52551 6.58542 3205 ft 139 kts 358°
2026-05-07 08:11 60.53527 6.58472 3167 ft 140 kts
2026-05-07 08:12 60.54500 6.58603 3145 ft 139 kts
2026-05-07 08:12 60.55459 6.58834 3139 ft 139 kts
2026-05-07 08:12 60.56414 6.58535 3148 ft 139 kts 346°
2026-05-07 08:12 60.57331 6.57881 3134 ft 140 kts 339°
2026-05-07 08:13 60.58213 6.57085 3160 ft 138 kts 335°
2026-05-07 08:13 60.59030 6.56048 3003 ft 136 kts 328°
2026-05-07 08:13 60.59805 6.55064 2750 ft 128 kts 335°
2026-05-07 08:13 60.60561 6.54145 2486 ft 126 kts 322°
2026-05-07 08:14 60.61167 6.52928 2255 ft 121 kts 317°
2026-05-07 08:14 60.61759 6.51759 1916 ft 115 kts 323°
2026-05-07 08:14 60.62395 6.50914 1494 ft 104 kts 340°
2026-05-07 08:14 60.63045 6.50476 1098 ft 91 kts 349°
2026-05-07 08:15 60.63557 6.50191 840 ft 61 kts 351°
2026-05-07 08:15 60.63882 6.49917 550 ft 42 kts 339°
2026-05-07 08:15 60.64063 6.49868 429 ft 22 kts 71°
2026-05-07 08:15 60.64013 6.49971 418 ft 11 kts 191°
2026-05-07 08:16 60.63980 6.49906 384 ft 3 kts 254°
2026-05-07 08:16 60.63977 6.49863 378 ft 2 kts 258°
2026-05-07 08:16 60.63976 6.49837 372 ft 0 kts 264°